sensor_id;sensor_type;location;lat;lon;timestamp;temperature;humidity
7307;DHT22;3694;48.732;9.248;2023-01-29T00:01:29;-0.80;99.90
7307;DHT22;3694;48.732;9.248;2023-01-29T00:03:55;-0.70;99.90
7307;DHT22;3694;48.732;9.248;2023-01-29T00:06:21;-0.70;99.90
7307;DHT22;3694;48.732;9.248;2023-01-29T00:08:48;-0.70;99.90
7307;DHT22;3694;48.732;9.248;2023-01-29T00:11:15;-0.70;99.90
7307;DHT22;3694;48.732;9.248;2023-01-29T00:13:41;-0.70;99.90
7307;DHT22;3694;48.732;9.248;2023-01-29T00:16:07;-0.70;99.90
7307;DHT22;3694;48.732;9.248;2023-01-29T00:18:37;-0.80;99.90
7307;DHT22;3694;48.732;9.248;2023-01-29T00:21:02;-0.80;99.90
7307;DHT22;3694;48.732;9.248;2023-01-29T00:23:28;-0.80;99.90
7307;DHT22;3694;48.732;9.248;2023-01-29T00:25:53;-0.90;99.90
7307;DHT22;3694;48.732;9.248;2023-01-29T00:28:19;-0.80;99.90
7307;DHT22;3694;48.732;9.248;2023-01-29T00:30:45;-0.80;99.90
7307;DHT22;3694;48.732;9.248;2023-01-29T00:33:10;-0.70;99.90
7307;DHT22;3694;48.732;9.248;2023-01-29T00:35:39;-0.70;99.90
7307;DHT22;3694;48.732;9.248;2023-01-29T00:38:05;-0.80;99.90
7307;DHT22;3694;48.732;9.248;2023-01-29T00:40:30;-0.90;99.90
7307;DHT22;3694;48.732;9.248;2023-01-29T00:43:16;-0.90;99.90
7307;DHT22;3694;48.732;9.248;2023-01-29T00:46:00;-1.00;99.90
7307;DHT22;3694;48.732;9.248;2023-01-29T00:48:25;-0.90;99.90
7307;DHT22;3694;48.732;9.248;2023-01-29T00:50:51;-0.90;99.90
7307;DHT22;3694;48.732;9.248;2023-01-29T00:53:16;-0.80;99.90
7307;DHT22;3694;48.732;9.248;2023-01-29T00:55:43;-0.80;99.90
7307;DHT22;3694;48.732;9.248;2023-01-29T00:58:09;-0.80;99.90
7307;DHT22;3694;48.732;9.248;2023-01-29T01:00:34;-0.80;99.90
7307;DHT22;3694;48.732;9.248;2023-01-29T01:03:00;-0.80;99.90
7307;DHT22;3694;48.732;9.248;2023-01-29T01:05:31;-0.70;99.90
7307;DHT22;3694;48.732;9.248;2023-01-29T01:07:57;-0.80;99.90
7307;DHT22;3694;48.732;9.248;2023-01-29T01:10:28;-0.70;99.90
7307;DHT22;3694;48.732;9.248;2023-01-29T01:12:55;-0.80;99.90
7307;DHT22;3694;48.732;9.248;2023-01-29T01:15:24;-0.90;99.90
7307;DHT22;3694;48.732;9.248;2023-01-29T01:17:58;-0.90;99.90
7307;DHT22;3694;48.732;9.248;2023-01-29T01:20:27;-0.80;99.90
7307;DHT22;3694;48.732;9.248;2023-01-29T01:22:53;-0.80;99.90
7307;DHT22;3694;48.732;9.248;2023-01-29T01:25:19;-0.80;99.90
7307;DHT22;3694;48.732;9.248;2023-01-29T01:27:45;-0.80;99.90
7307;DHT22;3694;48.732;9.248;2023-01-29T01:30:13;-0.90;99.90
7307;DHT22;3694;48.732;9.248;2023-01-29T01:32:40;-0.60;99.90
7307;DHT22;3694;48.732;9.248;2023-01-29T01:35:07;-0.80;99.90
7307;DHT22;3694;48.732;9.248;2023-01-29T01:37:33;-0.90;99.90
7307;DHT22;3694;48.732;9.248;2023-01-29T01:40:03;-0.90;99.90
7307;DHT22;3694;48.732;9.248;2023-01-29T01:42:30;-0.80;99.90
7307;DHT22;3694;48.732;9.248;2023-01-29T01:44:58;-0.80;99.90
7307;DHT22;3694;48.732;9.248;2023-01-29T01:47:40;-0.80;99.90
7307;DHT22;3694;48.732;9.248;2023-01-29T01:50:36;-0.80;99.90
7307;DHT22;3694;48.732;9.248;2023-01-29T01:53:04;-0.80;99.90
7307;DHT22;3694;48.732;9.248;2023-01-29T01:55:32;-0.80;99.90
7307;DHT22;3694;48.732;9.248;2023-01-29T01:58:05;-0.90;99.90
7307;DHT22;3694;48.732;9.248;2023-01-29T02:00:33;-0.90;99.90
7307;DHT22;3694;48.732;9.248;2023-01-29T02:02:59;-0.90;99.90
7307;DHT22;3694;48.732;9.248;2023-01-29T02:05:44;-0.90;99.90
7307;DHT22;3694;48.732;9.248;2023-01-29T02:08:36;-0.90;99.90
7307;DHT22;3694;48.732;9.248;2023-01-29T02:11:23;-0.90;99.90
7307;DHT22;3694;48.732;9.248;2023-01-29T02:13:49;-0.90;99.90
7307;DHT22;3694;48.732;9.248;2023-01-29T02:16:19;-0.90;99.90
7307;DHT22;3694;48.732;9.248;2023-01-29T02:18:45;-0.90;99.90
7307;DHT22;3694;48.732;9.248;2023-01-29T02:34:52;-1.00;99.90
7307;DHT22;3694;48.732;9.248;2023-01-29T02:37:52;-1.00;99.90
7307;DHT22;3694;48.732;9.248;2023-01-29T02:40:39;-1.00;99.90
7307;DHT22;3694;48.732;9.248;2023-01-29T02:43:14;-1.00;99.90
7307;DHT22;3694;48.732;9.248;2023-01-29T02:45:59;-1.00;99.90
7307;DHT22;3694;48.732;9.248;2023-01-29T02:48:32;-1.10;99.90
7307;DHT22;3694;48.732;9.248;2023-01-29T02:51:08;-1.10;99.90
7307;DHT22;3694;48.732;9.248;2023-01-29T02:53:59;-1.00;99.90
7307;DHT22;3694;48.732;9.248;2023-01-29T02:56:34;-1.00;99.90
7307;DHT22;3694;48.732;9.248;2023-01-29T02:59:10;-1.00;99.90
7307;DHT22;3694;48.732;9.248;2023-01-29T03:01:46;-1.00;99.90
7307;DHT22;3694;48.732;9.248;2023-01-29T03:04:18;-1.00;99.90
7307;DHT22;3694;48.732;9.248;2023-01-29T03:06:49;-1.00;99.90
7307;DHT22;3694;48.732;9.248;2023-01-29T03:09:35;-1.00;99.90
7307;DHT22;3694;48.732;9.248;2023-01-29T03:12:22;-1.00;99.90
7307;DHT22;3694;48.732;9.248;2023-01-29T03:15:02;-1.10;99.90
7307;DHT22;3694;48.732;9.248;2023-01-29T03:17:51;-1.10;99.90
7307;DHT22;3694;48.732;9.248;2023-01-29T03:20:21;-1.10;99.90
7307;DHT22;3694;48.732;9.248;2023-01-29T03:22:53;-1.10;99.90
7307;DHT22;3694;48.732;9.248;2023-01-29T03:25:22;-1.10;99.90
7307;DHT22;3694;48.732;9.248;2023-01-29T03:28:08;-1.00;99.90
7307;DHT22;3694;48.732;9.248;2023-01-29T03:30:54;-1.10;99.90
7307;DHT22;3694;48.732;9.248;2023-01-29T03:33:47;-1.20;99.90
7307;DHT22;3694;48.732;9.248;2023-01-29T03:36:22;-1.10;99.90
7307;DHT22;3694;48.732;9.248;2023-01-29T03:38:49;-1.20;99.90
7307;DHT22;3694;48.732;9.248;2023-01-29T03:41:21;-1.10;99.90
7307;DHT22;3694;48.732;9.248;2023-01-29T03:44:56;-1.20;99.90
7307;DHT22;3694;48.732;9.248;2023-01-29T03:46:54;-1.20;99.90
7307;DHT22;3694;48.732;9.248;2023-01-29T03:50:16;-1.20;99.90
7307;DHT22;3694;48.732;9.248;2023-01-29T03:57:40;-1.20;99.90
7307;DHT22;3694;48.732;9.248;2023-01-29T04:00:16;-1.20;99.90
7307;DHT22;3694;48.732;9.248;2023-01-29T04:02:54;-1.20;99.90
7307;DHT22;3694;48.732;9.248;2023-01-29T04:05:26;-1.20;99.90
7307;DHT22;3694;48.732;9.248;2023-01-29T04:08:03;-1.20;99.90
7307;DHT22;3694;48.732;9.248;2023-01-29T04:10:30;-1.10;99.90
7307;DHT22;3694;48.732;9.248;2023-01-29T04:13:03;-1.20;99.90
7307;DHT22;3694;48.732;9.248;2023-01-29T04:15:33;-1.20;99.90
7307;DHT22;3694;48.732;9.248;2023-01-29T04:18:01;-1.20;99.90
7307;DHT22;3694;48.732;9.248;2023-01-29T04:20:27;-1.20;99.90
7307;DHT22;3694;48.732;9.248;2023-01-29T04:22:52;-1.20;99.90
7307;DHT22;3694;48.732;9.248;2023-01-29T04:25:25;-1.20;99.90
7307;DHT22;3694;48.732;9.248;2023-01-29T04:30:53;-1.30;99.90
7307;DHT22;3694;48.732;9.248;2023-01-29T04:36:28;-1.20;99.90
7307;DHT22;3694;48.732;9.248;2023-01-29T04:41:37;-1.30;99.90
7307;DHT22;3694;48.732;9.248;2023-01-29T04:47:15;-1.30;99.90
7307;DHT22;3694;48.732;9.248;2023-01-29T04:50:20;-1.30;99.90
7307;DHT22;3694;48.732;9.248;2023-01-29T04:53:17;-1.30;99.90
7307;DHT22;3694;48.732;9.248;2023-01-29T04:55:47;-1.30;99.90
7307;DHT22;3694;48.732;9.248;2023-01-29T04:58:31;-1.30;99.90
7307;DHT22;3694;48.732;9.248;2023-01-29T05:00:59;-1.30;99.90
7307;DHT22;3694;48.732;9.248;2023-01-29T05:03:27;-1.20;99.90
7307;DHT22;3694;48.732;9.248;2023-01-29T05:05:54;-1.30;99.90
7307;DHT22;3694;48.732;9.248;2023-01-29T05:08:23;-1.30;99.90
7307;DHT22;3694;48.732;9.248;2023-01-29T05:10:51;-1.30;99.90
7307;DHT22;3694;48.732;9.248;2023-01-29T05:13:19;-1.30;99.90
7307;DHT22;3694;48.732;9.248;2023-01-29T05:15:51;-1.40;99.90
7307;DHT22;3694;48.732;9.248;2023-01-29T05:18:19;-1.30;99.90
7307;DHT22;3694;48.732;9.248;2023-01-29T05:20:46;-1.30;99.90
7307;DHT22;3694;48.732;9.248;2023-01-29T05:23:16;-1.30;99.90
7307;DHT22;3694;48.732;9.248;2023-01-29T05:25:43;-1.30;99.90
7307;DHT22;3694;48.732;9.248;2023-01-29T05:28:09;-1.30;99.90
7307;DHT22;3694;48.732;9.248;2023-01-29T05:30:43;-1.30;99.90
7307;DHT22;3694;48.732;9.248;2023-01-29T05:33:28;-1.30;99.90
7307;DHT22;3694;48.732;9.248;2023-01-29T05:35:56;-1.40;99.90
7307;DHT22;3694;48.732;9.248;2023-01-29T05:38:23;-1.40;99.90
7307;DHT22;3694;48.732;9.248;2023-01-29T05:40:48;-1.40;99.90
7307;DHT22;3694;48.732;9.248;2023-01-29T05:43:19;-1.30;99.90
7307;DHT22;3694;48.732;9.248;2023-01-29T05:45:56;-1.40;99.90
7307;DHT22;3694;48.732;9.248;2023-01-29T05:48:21;-1.40;99.90
7307;DHT22;3694;48.732;9.248;2023-01-29T05:50:47;-1.40;99.90
7307;DHT22;3694;48.732;9.248;2023-01-29T05:53:13;-1.50;99.90
7307;DHT22;3694;48.732;9.248;2023-01-29T05:55:38;-1.50;99.90
7307;DHT22;3694;48.732;9.248;2023-01-29T05:58:04;-1.50;99.90
7307;DHT22;3694;48.732;9.248;2023-01-29T06:00:30;-1.50;99.90
7307;DHT22;3694;48.732;9.248;2023-01-29T06:02:57;-1.60;99.90
7307;DHT22;3694;48.732;9.248;2023-01-29T06:05:23;-1.50;99.90
7307;DHT22;3694;48.732;9.248;2023-01-29T06:07:48;-1.60;99.90
7307;DHT22;3694;48.732;9.248;2023-01-29T06:10:16;-1.50;99.90
7307;DHT22;3694;48.732;9.248;2023-01-29T06:12:42;-1.50;99.90
7307;DHT22;3694;48.732;9.248;2023-01-29T06:15:08;-1.50;99.90
7307;DHT22;3694;48.732;9.248;2023-01-29T06:17:34;-1.60;99.90
7307;DHT22;3694;48.732;9.248;2023-01-29T06:19:59;-1.60;99.90
7307;DHT22;3694;48.732;9.248;2023-01-29T06:22:25;-1.60;99.90
7307;DHT22;3694;48.732;9.248;2023-01-29T06:24:50;-1.50;99.90
7307;DHT22;3694;48.732;9.248;2023-01-29T06:27:16;-1.50;99.90
7307;DHT22;3694;48.732;9.248;2023-01-29T06:29:42;-1.50;99.90
7307;DHT22;3694;48.732;9.248;2023-01-29T06:32:07;-1.50;99.90
7307;DHT22;3694;48.732;9.248;2023-01-29T06:34:33;-1.40;99.90
7307;DHT22;3694;48.732;9.248;2023-01-29T06:36:58;-1.40;99.90
7307;DHT22;3694;48.732;9.248;2023-01-29T06:39:24;-1.40;99.90
7307;DHT22;3694;48.732;9.248;2023-01-29T06:41:49;-1.40;99.90
7307;DHT22;3694;48.732;9.248;2023-01-29T06:44:15;-1.40;99.90
7307;DHT22;3694;48.732;9.248;2023-01-29T06:46:40;-1.50;99.90
7307;DHT22;3694;48.732;9.248;2023-01-29T06:49:06;-1.50;99.90
7307;DHT22;3694;48.732;9.248;2023-01-29T06:51:31;-1.40;99.90
7307;DHT22;3694;48.732;9.248;2023-01-29T06:53:57;-1.40;99.90
7307;DHT22;3694;48.732;9.248;2023-01-29T06:56:23;-1.40;99.90
7307;DHT22;3694;48.732;9.248;2023-01-29T06:58:48;-1.50;99.90
7307;DHT22;3694;48.732;9.248;2023-01-29T07:01:14;-1.40;99.90
7307;DHT22;3694;48.732;9.248;2023-01-29T07:03:40;-1.50;99.90
7307;DHT22;3694;48.732;9.248;2023-01-29T07:06:09;-1.50;99.90
7307;DHT22;3694;48.732;9.248;2023-01-29T07:08:38;-1.60;99.90
7307;DHT22;3694;48.732;9.248;2023-01-29T07:11:04;-1.60;99.90
7307;DHT22;3694;48.732;9.248;2023-01-29T07:13:30;-1.50;99.90
7307;DHT22;3694;48.732;9.248;2023-01-29T07:16:00;-1.40;99.90
7307;DHT22;3694;48.732;9.248;2023-01-29T07:18:26;-1.40;99.90
7307;DHT22;3694;48.732;9.248;2023-01-29T07:20:52;-1.30;99.90
7307;DHT22;3694;48.732;9.248;2023-01-29T07:23:17;-1.30;99.90
7307;DHT22;3694;48.732;9.248;2023-01-29T07:25:43;-1.30;99.90
7307;DHT22;3694;48.732;9.248;2023-01-29T07:28:09;-1.30;99.90
7307;DHT22;3694;48.732;9.248;2023-01-29T07:30:34;-1.30;99.90
7307;DHT22;3694;48.732;9.248;2023-01-29T07:33:06;-1.30;99.90
7307;DHT22;3694;48.732;9.248;2023-01-29T07:35:36;-1.60;99.90
7307;DHT22;3694;48.732;9.248;2023-01-29T07:38:02;-1.30;99.90
7307;DHT22;3694;48.732;9.248;2023-01-29T07:40:28;-1.30;99.90
7307;DHT22;3694;48.732;9.248;2023-01-29T07:42:58;-1.30;99.90
7307;DHT22;3694;48.732;9.248;2023-01-29T07:45:24;-1.20;99.90
7307;DHT22;3694;48.732;9.248;2023-01-29T07:47:53;-1.10;99.90
7307;DHT22;3694;48.732;9.248;2023-01-29T07:50:21;-1.10;99.90
7307;DHT22;3694;48.732;9.248;2023-01-29T07:52:46;-1.30;99.90
7307;DHT22;3694;48.732;9.248;2023-01-29T07:55:12;-1.10;99.90
7307;DHT22;3694;48.732;9.248;2023-01-29T07:57:37;-1.10;99.90
7307;DHT22;3694;48.732;9.248;2023-01-29T08:00:03;-1.00;99.90
7307;DHT22;3694;48.732;9.248;2023-01-29T08:02:29;-1.00;99.90
7307;DHT22;3694;48.732;9.248;2023-01-29T08:04:54;-0.90;99.90
7307;DHT22;3694;48.732;9.248;2023-01-29T08:07:20;-1.00;99.90
7307;DHT22;3694;48.732;9.248;2023-01-29T08:09:45;-1.00;99.90
7307;DHT22;3694;48.732;9.248;2023-01-29T08:12:11;-1.00;99.90
7307;DHT22;3694;48.732;9.248;2023-01-29T08:14:36;-0.90;99.90
7307;DHT22;3694;48.732;9.248;2023-01-29T08:17:02;-0.90;99.90
7307;DHT22;3694;48.732;9.248;2023-01-29T08:19:27;-0.90;99.90
7307;DHT22;3694;48.732;9.248;2023-01-29T08:21:53;-0.90;99.90
7307;DHT22;3694;48.732;9.248;2023-01-29T08:24:18;-0.80;99.90
7307;DHT22;3694;48.732;9.248;2023-01-29T08:26:44;-0.80;99.90
7307;DHT22;3694;48.732;9.248;2023-01-29T08:29:10;-0.80;99.90
7307;DHT22;3694;48.732;9.248;2023-01-29T08:31:36;-0.80;99.90
7307;DHT22;3694;48.732;9.248;2023-01-29T08:34:02;-0.80;99.90
7307;DHT22;3694;48.732;9.248;2023-01-29T08:36:27;-0.70;99.90
7307;DHT22;3694;48.732;9.248;2023-01-29T08:38:53;-0.70;99.90
7307;DHT22;3694;48.732;9.248;2023-01-29T08:41:18;-0.60;99.90
7307;DHT22;3694;48.732;9.248;2023-01-29T08:43:44;-0.60;99.90
7307;DHT22;3694;48.732;9.248;2023-01-29T08:46:10;-0.50;99.30
7307;DHT22;3694;48.732;9.248;2023-01-29T08:48:36;-0.40;99.70
7307;DHT22;3694;48.732;9.248;2023-01-29T08:51:02;-0.40;99.90
7307;DHT22;3694;48.732;9.248;2023-01-29T08:53:29;-0.30;99.90
7307;DHT22;3694;48.732;9.248;2023-01-29T08:55:58;-0.40;99.40
7307;DHT22;3694;48.732;9.248;2023-01-29T08:58:23;-0.40;99.60
7307;DHT22;3694;48.732;9.248;2023-01-29T09:00:49;-0.40;99.90
7307;DHT22;3694;48.732;9.248;2023-01-29T09:03:15;-0.40;99.90
7307;DHT22;3694;48.732;9.248;2023-01-29T09:05:40;-0.50;99.90
7307;DHT22;3694;48.732;9.248;2023-01-29T09:08:07;-0.40;99.90
7307;DHT22;3694;48.732;9.248;2023-01-29T09:10:33;-0.40;99.60
7307;DHT22;3694;48.732;9.248;2023-01-29T09:12:58;-0.50;99.90
7307;DHT22;3694;48.732;9.248;2023-01-29T09:15:24;-0.40;99.50
7307;DHT22;3694;48.732;9.248;2023-01-29T09:17:49;-0.30;99.50
7307;DHT22;3694;48.732;9.248;2023-01-29T09:20:16;-0.20;99.30
7307;DHT22;3694;48.732;9.248;2023-01-29T09:22:41;-0.30;99.40
7307;DHT22;3694;48.732;9.248;2023-01-29T09:25:07;-0.20;98.60
7307;DHT22;3694;48.732;9.248;2023-01-29T09:27:33;-0.20;98.50
7307;DHT22;3694;48.732;9.248;2023-01-29T09:29:59;0.40;99.10
7307;DHT22;3694;48.732;9.248;2023-01-29T09:32:24;0.00;98.60
7307;DHT22;3694;48.732;9.248;2023-01-29T09:34:50;0.10;98.70
7307;DHT22;3694;48.732;9.248;2023-01-29T09:37:16;0.10;98.10
7307;DHT22;3694;48.732;9.248;2023-01-29T09:39:47;0.10;98.10
7307;DHT22;3694;48.732;9.248;2023-01-29T09:42:43;0.20;97.90
7307;DHT22;3694;48.732;9.248;2023-01-29T09:45:15;0.20;98.10
7307;DHT22;3694;48.732;9.248;2023-01-29T09:47:41;0.30;97.70
7307;DHT22;3694;48.732;9.248;2023-01-29T09:53:20;0.20;97.80
7307;DHT22;3694;48.732;9.248;2023-01-29T09:56:03;0.30;97.50
7307;DHT22;3694;48.732;9.248;2023-01-29T09:58:34;0.20;97.50
7307;DHT22;3694;48.732;9.248;2023-01-29T10:01:32;0.20;97.40
7307;DHT22;3694;48.732;9.248;2023-01-29T10:04:40;0.20;97.50
7307;DHT22;3694;48.732;9.248;2023-01-29T10:13:10;0.70;97.50
7307;DHT22;3694;48.732;9.248;2023-01-29T10:16:03;1.20;97.00
7307;DHT22;3694;48.732;9.248;2023-01-29T10:18:51;1.70;96.80
7307;DHT22;3694;48.732;9.248;2023-01-29T10:26:34;2.40;94.80
7307;DHT22;3694;48.732;9.248;2023-01-29T10:29:05;2.40;93.90
7307;DHT22;3694;48.732;9.248;2023-01-29T10:31:35;2.40;93.90
7307;DHT22;3694;48.732;9.248;2023-01-29T10:34:13;2.40;93.90
7307;DHT22;3694;48.732;9.248;2023-01-29T10:36:45;2.30;93.30
7307;DHT22;3694;48.732;9.248;2023-01-29T10:39:22;2.30;93.40
7307;DHT22;3694;48.732;9.248;2023-01-29T10:50:12;2.00;92.90
7307;DHT22;3694;48.732;9.248;2023-01-29T10:53:02;2.00;93.50
7307;DHT22;3694;48.732;9.248;2023-01-29T10:58:35;2.30;92.90
7307;DHT22;3694;48.732;9.248;2023-01-29T11:01:02;2.40;93.00
7307;DHT22;3694;48.732;9.248;2023-01-29T11:03:30;2.30;92.70
7307;DHT22;3694;48.732;9.248;2023-01-29T11:06:20;2.40;93.30
7307;DHT22;3694;48.732;9.248;2023-01-29T11:12:03;2.80;92.90
7307;DHT22;3694;48.732;9.248;2023-01-29T11:14:50;2.80;92.50
7307;DHT22;3694;48.732;9.248;2023-01-29T11:17:20;3.00;93.20
7307;DHT22;3694;48.732;9.248;2023-01-29T11:19:47;3.10;92.70
7307;DHT22;3694;48.732;9.248;2023-01-29T11:22:19;3.10;92.20
7307;DHT22;3694;48.732;9.248;2023-01-29T11:24:45;3.00;92.50
7307;DHT22;3694;48.732;9.248;2023-01-29T11:27:25;2.70;92.10
7307;DHT22;3694;48.732;9.248;2023-01-29T11:29:54;2.50;92.10
7307;DHT22;3694;48.732;9.248;2023-01-29T11:37:43;2.50;92.50
7307;DHT22;3694;48.732;9.248;2023-01-29T11:42:45;2.70;91.40
7307;DHT22;3694;48.732;9.248;2023-01-29T11:45:37;2.80;92.20
7307;DHT22;3694;48.732;9.248;2023-01-29T11:48:04;2.90;92.30
7307;DHT22;3694;48.732;9.248;2023-01-29T11:50:37;2.90;91.70
7307;DHT22;3694;48.732;9.248;2023-01-29T11:53:02;3.10;91.60
7307;DHT22;3694;48.732;9.248;2023-01-29T11:55:32;2.90;91.90
7307;DHT22;3694;48.732;9.248;2023-01-29T12:00:32;2.90;91.60
7307;DHT22;3694;48.732;9.248;2023-01-29T12:03:12;2.80;92.40
7307;DHT22;3694;48.732;9.248;2023-01-29T12:05:53;2.90;92.10
7307;DHT22;3694;48.732;9.248;2023-01-29T12:08:21;3.10;90.80
7307;DHT22;3694;48.732;9.248;2023-01-29T12:10:48;3.00;91.40
7307;DHT22;3694;48.732;9.248;2023-01-29T12:15:41;2.70;91.40
7307;DHT22;3694;48.732;9.248;2023-01-29T12:18:15;2.70;91.50
7307;DHT22;3694;48.732;9.248;2023-01-29T12:20:57;2.60;91.70
7307;DHT22;3694;48.732;9.248;2023-01-29T12:23:49;2.60;91.80
7307;DHT22;3694;48.732;9.248;2023-01-29T12:26:33;2.50;91.70
7307;DHT22;3694;48.732;9.248;2023-01-29T12:29:28;2.60;91.70
7307;DHT22;3694;48.732;9.248;2023-01-29T12:32:26;2.60;91.50
7307;DHT22;3694;48.732;9.248;2023-01-29T12:35:05;2.60;91.50
7307;DHT22;3694;48.732;9.248;2023-01-29T12:37:58;2.60;91.80
7307;DHT22;3694;48.732;9.248;2023-01-29T12:40:33;2.60;92.00
7307;DHT22;3694;48.732;9.248;2023-01-29T12:43:09;2.60;91.80
7307;DHT22;3694;48.732;9.248;2023-01-29T12:45:36;2.60;91.30
7307;DHT22;3694;48.732;9.248;2023-01-29T12:48:13;2.60;91.30
7307;DHT22;3694;48.732;9.248;2023-01-29T12:50:38;2.60;91.90
7307;DHT22;3694;48.732;9.248;2023-01-29T12:53:30;2.70;91.80
7307;DHT22;3694;48.732;9.248;2023-01-29T12:56:01;2.60;91.50
7307;DHT22;3694;48.732;9.248;2023-01-29T12:58:29;2.50;91.80
7307;DHT22;3694;48.732;9.248;2023-01-29T13:01:01;2.60;91.60
7307;DHT22;3694;48.732;9.248;2023-01-29T13:03:52;2.50;91.50
7307;DHT22;3694;48.732;9.248;2023-01-29T13:06:25;2.60;91.70
7307;DHT22;3694;48.732;9.248;2023-01-29T13:08:59;2.90;91.80
7307;DHT22;3694;48.732;9.248;2023-01-29T13:11:50;3.00;91.50
7307;DHT22;3694;48.732;9.248;2023-01-29T13:14:37;2.80;91.30
7307;DHT22;3694;48.732;9.248;2023-01-29T13:17:15;2.90;91.30
7307;DHT22;3694;48.732;9.248;2023-01-29T13:19:45;2.90;91.50
7307;DHT22;3694;48.732;9.248;2023-01-29T13:22:18;2.80;91.30
7307;DHT22;3694;48.732;9.248;2023-01-29T13:24:45;2.80;91.30
7307;DHT22;3694;48.732;9.248;2023-01-29T13:27:23;2.70;91.10
7307;DHT22;3694;48.732;9.248;2023-01-29T13:29:49;2.60;91.70
7307;DHT22;3694;48.732;9.248;2023-01-29T13:32:24;2.50;91.70
7307;DHT22;3694;48.732;9.248;2023-01-29T13:34:52;2.50;92.30
7307;DHT22;3694;48.732;9.248;2023-01-29T13:37:37;2.30;91.60
7307;DHT22;3694;48.732;9.248;2023-01-29T13:40:06;2.30;92.40
7307;DHT22;3694;48.732;9.248;2023-01-29T13:42:50;2.30;91.70
7307;DHT22;3694;48.732;9.248;2023-01-29T13:45:21;2.60;91.70
7307;DHT22;3694;48.732;9.248;2023-01-29T13:47:49;2.60;91.80
7307;DHT22;3694;48.732;9.248;2023-01-29T13:50:29;2.60;91.60
7307;DHT22;3694;48.732;9.248;2023-01-29T13:52:58;2.70;91.60
7307;DHT22;3694;48.732;9.248;2023-01-29T13:55:30;2.80;91.50
7307;DHT22;3694;48.732;9.248;2023-01-29T13:58:01;3.00;92.10
7307;DHT22;3694;48.732;9.248;2023-01-29T14:08:00;2.60;91.30
7307;DHT22;3694;48.732;9.248;2023-01-29T14:10:28;2.80;91.70
7307;DHT22;3694;48.732;9.248;2023-01-29T14:18:32;2.30;91.00
7307;DHT22;3694;48.732;9.248;2023-01-29T14:21:05;2.40;91.20
7307;DHT22;3694;48.732;9.248;2023-01-29T14:23:55;2.40;91.40
7307;DHT22;3694;48.732;9.248;2023-01-29T14:26:41;2.30;91.40
7307;DHT22;3694;48.732;9.248;2023-01-29T14:34:20;2.30;91.60
7307;DHT22;3694;48.732;9.248;2023-01-29T14:36:48;2.30;91.70
7307;DHT22;3694;48.732;9.248;2023-01-29T14:39:24;2.30;91.90
7307;DHT22;3694;48.732;9.248;2023-01-29T14:41:52;2.10;91.60
7307;DHT22;3694;48.732;9.248;2023-01-29T14:49:58;1.90;91.90
7307;DHT22;3694;48.732;9.248;2023-01-29T14:52:37;1.70;91.80
7307;DHT22;3694;48.732;9.248;2023-01-29T14:55:08;1.60;92.00
7307;DHT22;3694;48.732;9.248;2023-01-29T14:57:36;1.50;92.20
7307;DHT22;3694;48.732;9.248;2023-01-29T15:00:16;1.40;92.40
7307;DHT22;3694;48.732;9.248;2023-01-29T15:02:43;1.30;92.70
7307;DHT22;3694;48.732;9.248;2023-01-29T15:05:20;1.20;93.00
7307;DHT22;3694;48.732;9.248;2023-01-29T15:07:54;1.20;93.20
7307;DHT22;3694;48.732;9.248;2023-01-29T15:13:03;1.10;93.20
7307;DHT22;3694;48.732;9.248;2023-01-29T15:15:45;1.00;93.30
7307;DHT22;3694;48.732;9.248;2023-01-29T15:18:18;0.90;93.50
7307;DHT22;3694;48.732;9.248;2023-01-29T15:20:47;0.90;93.60
7307;DHT22;3694;48.732;9.248;2023-01-29T15:23:25;0.80;93.60
7307;DHT22;3694;48.732;9.248;2023-01-29T15:25:54;0.80;93.80
7307;DHT22;3694;48.732;9.248;2023-01-29T15:28:20;0.80;94.30
7307;DHT22;3694;48.732;9.248;2023-01-29T15:30:52;0.70;94.60
7307;DHT22;3694;48.732;9.248;2023-01-29T15:33:18;0.70;94.50
7307;DHT22;3694;48.732;9.248;2023-01-29T15:35:44;0.60;94.50
7307;DHT22;3694;48.732;9.248;2023-01-29T15:38:16;0.50;94.60
7307;DHT22;3694;48.732;9.248;2023-01-29T15:40:52;0.40;94.70
7307;DHT22;3694;48.732;9.248;2023-01-29T15:43:28;0.40;94.70
7307;DHT22;3694;48.732;9.248;2023-01-29T15:46:00;0.40;94.70
7307;DHT22;3694;48.732;9.248;2023-01-29T15:48:34;0.40;94.70
7307;DHT22;3694;48.732;9.248;2023-01-29T15:51:01;0.20;94.90
7307;DHT22;3694;48.732;9.248;2023-01-29T15:53:35;0.10;95.20
7307;DHT22;3694;48.732;9.248;2023-01-29T15:56:07;0.10;95.50
7307;DHT22;3694;48.732;9.248;2023-01-29T15:58:33;0.00;95.60
7307;DHT22;3694;48.732;9.248;2023-01-29T16:01:00;0.00;95.90
7307;DHT22;3694;48.732;9.248;2023-01-29T16:03:29;-0.10;96.10
7307;DHT22;3694;48.732;9.248;2023-01-29T16:05:56;-0.20;96.30
7307;DHT22;3694;48.732;9.248;2023-01-29T16:08:24;-0.20;96.50
7307;DHT22;3694;48.732;9.248;2023-01-29T16:10:54;-0.40;96.70
7307;DHT22;3694;48.732;9.248;2023-01-29T16:13:22;-0.50;97.00
7307;DHT22;3694;48.732;9.248;2023-01-29T16:16:00;-0.60;97.20
7307;DHT22;3694;48.732;9.248;2023-01-29T16:18:32;-0.60;97.60
7307;DHT22;3694;48.732;9.248;2023-01-29T16:21:04;-0.70;97.70
7307;DHT22;3694;48.732;9.248;2023-01-29T16:23:44;-0.80;98.00
7307;DHT22;3694;48.732;9.248;2023-01-29T16:26:16;-0.80;98.20
7307;DHT22;3694;48.732;9.248;2023-01-29T16:28:44;-0.90;98.60
7307;DHT22;3694;48.732;9.248;2023-01-29T16:31:10;-0.90;98.60
7307;DHT22;3694;48.732;9.248;2023-01-29T16:33:40;-0.90;98.90
7307;DHT22;3694;48.732;9.248;2023-01-29T16:36:17;-1.10;99.10
7307;DHT22;3694;48.732;9.248;2023-01-29T16:38:51;-1.20;99.40
7307;DHT22;3694;48.732;9.248;2023-01-29T16:44:01;-1.60;99.90
7307;DHT22;3694;48.732;9.248;2023-01-29T16:46:36;-1.70;99.90
7307;DHT22;3694;48.732;9.248;2023-01-29T16:51:50;-2.10;99.90
7307;DHT22;3694;48.732;9.248;2023-01-29T16:54:15;-2.30;99.90
7307;DHT22;3694;48.732;9.248;2023-01-29T16:56:47;-2.40;99.90
7307;DHT22;3694;48.732;9.248;2023-01-29T17:01:47;-2.60;99.90
7307;DHT22;3694;48.732;9.248;2023-01-29T17:04:14;-2.70;99.90
7307;DHT22;3694;48.732;9.248;2023-01-29T17:06:44;-2.80;99.90
7307;DHT22;3694;48.732;9.248;2023-01-29T17:09:20;-2.90;99.90
7307;DHT22;3694;48.732;9.248;2023-01-29T17:11:45;-2.90;99.90
7307;DHT22;3694;48.732;9.248;2023-01-29T17:14:18;-2.80;99.90
7307;DHT22;3694;48.732;9.248;2023-01-29T17:16:55;-2.80;99.90
7307;DHT22;3694;48.732;9.248;2023-01-29T17:19:25;-2.90;99.90
7307;DHT22;3694;48.732;9.248;2023-01-29T17:21:51;-3.10;99.90
7307;DHT22;3694;48.732;9.248;2023-01-29T17:24:16;-3.20;99.90
7307;DHT22;3694;48.732;9.248;2023-01-29T17:26:42;-3.30;99.90
7307;DHT22;3694;48.732;9.248;2023-01-29T17:29:13;-3.20;99.90
7307;DHT22;3694;48.732;9.248;2023-01-29T17:31:41;-3.30;99.90
7307;DHT22;3694;48.732;9.248;2023-01-29T17:34:14;-3.40;99.90
7307;DHT22;3694;48.732;9.248;2023-01-29T17:36:43;-3.40;99.90
7307;DHT22;3694;48.732;9.248;2023-01-29T17:39:18;-3.40;99.90
7307;DHT22;3694;48.732;9.248;2023-01-29T17:41:55;-3.30;99.90
7307;DHT22;3694;48.732;9.248;2023-01-29T17:44:21;-3.40;99.90
7307;DHT22;3694;48.732;9.248;2023-01-29T17:46:47;-3.50;99.90
7307;DHT22;3694;48.732;9.248;2023-01-29T17:49:23;-3.60;99.90
7307;DHT22;3694;48.732;9.248;2023-01-29T17:51:53;-3.50;99.90
7307;DHT22;3694;48.732;9.248;2023-01-29T17:54:19;-3.60;99.90
7307;DHT22;3694;48.732;9.248;2023-01-29T17:56:46;-3.40;99.90
7307;DHT22;3694;48.732;9.248;2023-01-29T17:59:15;-3.40;99.90
7307;DHT22;3694;48.732;9.248;2023-01-29T18:01:41;-3.50;99.90
7307;DHT22;3694;48.732;9.248;2023-01-29T18:04:07;-3.60;99.90
7307;DHT22;3694;48.732;9.248;2023-01-29T18:06:33;-3.70;99.90
7307;DHT22;3694;48.732;9.248;2023-01-29T18:08:59;-3.70;99.90
7307;DHT22;3694;48.732;9.248;2023-01-29T18:11:25;-3.70;99.90
7307;DHT22;3694;48.732;9.248;2023-01-29T18:13:50;-3.70;99.90
7307;DHT22;3694;48.732;9.248;2023-01-29T18:16:16;-3.70;99.90
7307;DHT22;3694;48.732;9.248;2023-01-29T18:18:46;-3.80;99.90
7307;DHT22;3694;48.732;9.248;2023-01-29T18:21:12;-3.80;99.90